AWC45VM LOWL-LDPL
Flight info
| Callsign | AWC45VM |
|---|---|
| Flight time | 0h 43m |
| Altitude | 35000 |
| Route | LIDSI DCT VATET DCT GIRDA |
| Aircraft | A320/M-SDE3FGHIRWY/LB1 |
Departure
| Time | 2026-05-04 08:55 |
|---|---|
| Airport | Linz-Hörsching Airport (LOWL) |
Arrival
| Time | 2026-05-04 09:39 |
|---|---|
| Airport | Pula Airport (LDPL) |
| Time | Latitude | Longitude | Altitude | Speed | Heading |
|---|---|---|---|---|---|
| 2026-05-04 08:19 | 48.23886 | 14.19286 | 980 ft | 0 kts | 87° |
| 2026-05-04 08:50 | 48.23860 | 14.19345 | 974 ft | 3 kts | 171° |
| 2026-05-04 08:50 | 48.23843 | 14.19346 | 975 ft | 2 kts | 178° |
| 2026-05-04 08:51 | 48.23815 | 14.19348 | 979 ft | 6 kts | 178° |
| 2026-05-04 08:51 | 48.23776 | 14.19355 | 975 ft | 6 kts | 157° |
| 2026-05-04 08:51 | 48.23762 | 14.19429 | 974 ft | 10 kts | 87° |
| 2026-05-04 08:51 | 48.23767 | 14.19541 | 977 ft | 10 kts | 86° |
| 2026-05-04 08:52 | 48.23742 | 14.19603 | 976 ft | 8 kts | 153° |
| 2026-05-04 08:52 | 48.23675 | 14.19642 | 974 ft | 12 kts | 159° |
| 2026-05-04 08:52 | 48.23591 | 14.19692 | 974 ft | 14 kts | 159° |
| 2026-05-04 08:52 | 48.23501 | 14.19742 | 978 ft | 12 kts | 161° |
| 2026-05-04 08:53 | 48.23436 | 14.19782 | 973 ft | 11 kts | 155° |
| 2026-05-04 08:54 | 48.23346 | 14.19491 | 978 ft | 67 kts | 266° |
| 2026-05-04 08:55 | 48.23310 | 14.18459 | 981 ft | 128 kts | 266° |
| 2026-05-04 08:55 | 48.23265 | 14.16950 | 1287 ft | 148 kts | 268° |
| 2026-05-04 08:55 | 48.23213 | 14.15407 | 1971 ft | 148 kts | 269° |
| 2026-05-04 08:55 | 48.23159 | 14.13798 | 2416 ft | 164 kts | 268° |
| 2026-05-04 08:57 | 48.22535 | 13.96674 | 7031 ft | 280 kts | 263° |
| 2026-05-04 09:01 | 47.93601 | 13.96034 | 18509 ft | 359 kts | 173° |
| 2026-05-04 09:01 | 47.91107 | 13.96577 | 19181 ft | 364 kts | 173° |
| 2026-05-04 09:01 | 47.88584 | 13.97127 | 19890 ft | 369 kts | 173° |
| 2026-05-04 09:01 | 47.86027 | 13.97687 | 20628 ft | 374 kts | 173° |
| 2026-05-04 09:02 | 47.83440 | 13.98254 | 21336 ft | 379 kts | 173° |
| 2026-05-04 09:02 | 47.80812 | 13.98826 | 22036 ft | 384 kts | 173° |
| 2026-05-04 09:02 | 47.78154 | 13.99401 | 22721 ft | 389 kts | 173° |
| 2026-05-04 09:02 | 47.75454 | 13.99981 | 23429 ft | 395 kts | 173° |
| 2026-05-04 09:03 | 47.72718 | 14.00569 | 24053 ft | 400 kts | 173° |
| 2026-05-04 09:03 | 47.69946 | 14.01168 | 24650 ft | 405 kts | 173° |
| 2026-05-04 09:03 | 47.67138 | 14.01776 | 25258 ft | 410 kts | 173° |
| 2026-05-04 09:03 | 47.64310 | 14.02387 | 25840 ft | 414 kts | 173° |
| 2026-05-04 09:04 | 47.61443 | 14.03008 | 26437 ft | 418 kts | 173° |
| 2026-05-04 09:04 | 47.58541 | 14.03393 | 27004 ft | 421 kts | 180° |
| 2026-05-04 09:04 | 47.55631 | 14.03540 | 27572 ft | 426 kts | 180° |
| 2026-05-04 09:04 | 47.52654 | 14.03687 | 28132 ft | 430 kts | 180° |
| 2026-05-04 09:05 | 47.49646 | 14.03833 | 28704 ft | 434 kts | 180° |
| 2026-05-04 09:05 | 47.46611 | 14.03976 | 29251 ft | 438 kts | 180° |
| 2026-05-04 09:05 | 47.43551 | 14.04119 | 29779 ft | 442 kts | 180° |
| 2026-05-04 09:05 | 47.40461 | 14.04266 | 30268 ft | 446 kts | 180° |
| 2026-05-04 09:06 | 47.37346 | 14.04416 | 30695 ft | 449 kts | 180° |
| 2026-05-04 09:07 | 47.15292 | 14.05514 | 33074 ft | 453 kts | 180° |
| 2026-05-04 09:08 | 47.12142 | 14.05667 | 33107 ft | 452 kts | 180° |
| 2026-05-04 09:08 | 47.05848 | 14.05962 | 33107 ft | 451 kts | 180° |
| 2026-05-04 09:09 | 46.99558 | 14.06260 | 33108 ft | 451 kts | 180° |
| 2026-05-04 09:09 | 46.93303 | 14.06562 | 33103 ft | 452 kts | 180° |
| 2026-05-04 09:10 | 46.87003 | 14.06861 | 33105 ft | 453 kts | 180° |
| 2026-05-04 09:10 | 46.80730 | 14.07166 | 32852 ft | 444 kts | 180° |
| 2026-05-04 09:10 | 46.77674 | 14.07318 | 32579 ft | 434 kts | 180° |
| 2026-05-04 09:11 | 46.74683 | 14.07468 | 32335 ft | 428 kts | 180° |
| 2026-05-04 09:11 | 46.71714 | 14.07614 | 32071 ft | 425 kts | 180° |
| 2026-05-04 09:11 | 46.68757 | 14.07754 | 31809 ft | 423 kts | 180° |
| 2026-05-04 09:11 | 46.65824 | 14.07892 | 31558 ft | 422 kts | 180° |
| 2026-05-04 09:12 | 46.62894 | 14.08028 | 31306 ft | 420 kts | 180° |
| 2026-05-04 09:12 | 46.59972 | 14.08166 | 31057 ft | 419 kts | 180° |
| 2026-05-04 09:14 | 46.39820 | 14.09115 | 29220 ft | 409 kts | 180° |
| 2026-05-04 09:14 | 46.36984 | 14.09254 | 28948 ft | 406 kts | 180° |
| 2026-05-04 09:14 | 46.34170 | 14.09390 | 28678 ft | 404 kts | 181° |
| 2026-05-04 09:14 | 46.31367 | 14.09525 | 28408 ft | 402 kts | 181° |
| 2026-05-04 09:15 | 46.28580 | 14.09658 | 28137 ft | 398 kts | 181° |
| 2026-05-04 09:15 | 46.25818 | 14.09785 | 27725 ft | 396 kts | 180° |
| 2026-05-04 09:15 | 46.23066 | 14.09910 | 27302 ft | 394 kts | 180° |
| 2026-05-04 09:15 | 46.20338 | 14.10034 | 26896 ft | 392 kts | 180° |
| 2026-05-04 09:17 | 45.98791 | 14.11040 | 23271 ft | 387 kts | 179° |
| 2026-05-04 09:18 | 45.96109 | 14.11164 | 22783 ft | 385 kts | 180° |
| 2026-05-04 09:18 | 45.93436 | 14.11287 | 22370 ft | 380 kts | 181° |
| 2026-05-04 09:18 | 45.90813 | 14.11407 | 21910 ft | 377 kts | 179° |
| 2026-05-04 09:18 | 45.88205 | 14.11526 | 21535 ft | 371 kts | 180° |
| 2026-05-04 09:19 | 45.85638 | 14.11645 | 21099 ft | 367 kts | 180° |
| 2026-05-04 09:19 | 45.83100 | 14.11762 | 20650 ft | 363 kts | 180° |
| 2026-05-04 09:19 | 45.80582 | 14.11879 | 20145 ft | 357 kts | 179° |
| 2026-05-04 09:19 | 45.78141 | 14.11995 | 19559 ft | 344 kts | 179° |
| 2026-05-04 09:20 | 45.75796 | 14.12105 | 19135 ft | 329 kts | 179° |
| 2026-05-04 09:20 | 45.73532 | 14.12208 | 18717 ft | 325 kts | 179° |
| 2026-05-04 09:20 | 45.71276 | 14.12311 | 18292 ft | 324 kts | 179° |
| 2026-05-04 09:20 | 45.69037 | 14.12415 | 17850 ft | 321 kts | 179° |
| 2026-05-04 09:21 | 45.66834 | 14.12517 | 17452 ft | 319 kts | 179° |
| 2026-05-04 09:21 | 45.64628 | 14.12619 | 17041 ft | 316 kts | 179° |
| 2026-05-04 09:21 | 45.62433 | 14.12720 | 16639 ft | 314 kts | 179° |
| 2026-05-04 09:21 | 45.60253 | 14.12820 | 16240 ft | 312 kts | 179° |
| 2026-05-04 09:22 | 45.58089 | 14.12918 | 15844 ft | 311 kts | 179° |
| 2026-05-04 09:22 | 45.55932 | 14.13017 | 15445 ft | 309 kts | 179° |
| 2026-05-04 09:22 | 45.53782 | 14.13115 | 15049 ft | 308 kts | 179° |
| 2026-05-04 09:22 | 45.51640 | 14.13213 | 14656 ft | 308 kts | 179° |
| 2026-05-04 09:23 | 45.49507 | 14.13115 | 14256 ft | 306 kts | 189° |
| 2026-05-04 09:23 | 45.47474 | 14.12289 | 13857 ft | 304 kts | 204° |
| 2026-05-04 09:23 | 45.45647 | 14.10766 | 13422 ft | 303 kts | 218° |
| 2026-05-04 09:23 | 45.44088 | 14.08759 | 13017 ft | 302 kts | 223° |
| 2026-05-04 09:25 | 45.33904 | 13.95160 | 10350 ft | 273 kts | 223° |
| 2026-05-04 09:25 | 45.32513 | 13.93313 | 9980 ft | 275 kts | 223° |
| 2026-05-04 09:26 | 45.31115 | 13.91461 | 9576 ft | 275 kts | 223° |
| 2026-05-04 09:26 | 45.29715 | 13.89603 | 9206 ft | 276 kts | 223° |
| 2026-05-04 09:26 | 45.28312 | 13.87742 | 8834 ft | 275 kts | 223° |
| 2026-05-04 09:26 | 45.26910 | 13.85893 | 8464 ft | 275 kts | 221° |
| 2026-05-04 09:27 | 45.25306 | 13.84422 | 8118 ft | 274 kts | 205° |
| 2026-05-04 09:27 | 45.23482 | 13.83671 | 7877 ft | 272 kts | 188° |
| 2026-05-04 09:27 | 45.21593 | 13.83629 | 7758 ft | 273 kts | 179° |
| 2026-05-04 09:27 | 45.19690 | 13.83740 | 7623 ft | 273 kts | 179° |
| 2026-05-04 09:28 | 45.17803 | 13.83842 | 7476 ft | 270 kts | 180° |
| 2026-05-04 09:28 | 45.15921 | 13.83872 | 7350 ft | 271 kts | 188° |
| 2026-05-04 09:28 | 45.14163 | 13.83074 | 7223 ft | 263 kts | 212° |
| 2026-05-04 09:28 | 45.12764 | 13.81485 | 7108 ft | 254 kts | 222° |
| 2026-05-04 09:29 | 45.11477 | 13.79825 | 6978 ft | 248 kts | 222° |
| 2026-05-04 09:29 | 45.10204 | 13.78179 | 6867 ft | 246 kts | 222° |
| 2026-05-04 09:29 | 45.08941 | 13.76545 | 6735 ft | 246 kts | 222° |
| 2026-05-04 09:29 | 45.07674 | 13.74909 | 6616 ft | 246 kts | 222° |
| 2026-05-04 09:30 | 45.06414 | 13.73285 | 6459 ft | 242 kts | 222° |
| 2026-05-04 09:30 | 45.05185 | 13.71700 | 6339 ft | 234 kts | 222° |
| 2026-05-04 09:30 | 45.04000 | 13.70173 | 6211 ft | 228 kts | 222° |
| 2026-05-04 09:30 | 45.02841 | 13.68682 | 6056 ft | 222 kts | 222° |
| 2026-05-04 09:31 | 45.01707 | 13.67224 | 5727 ft | 218 kts | 222° |
| 2026-05-04 09:31 | 45.00574 | 13.65769 | 5384 ft | 220 kts | 222° |
| 2026-05-04 09:31 | 44.99446 | 13.64322 | 5100 ft | 218 kts | 221° |
| 2026-05-04 09:31 | 44.98322 | 13.62883 | 4823 ft | 217 kts | 221° |
| 2026-05-04 09:32 | 44.97205 | 13.61453 | 4525 ft | 216 kts | 221° |
| 2026-05-04 09:32 | 44.96117 | 13.60057 | 4342 ft | 210 kts | 221° |
| 2026-05-04 09:34 | 44.88754 | 13.61117 | 2675 ft | 191 kts | 103° |
| 2026-05-04 09:34 | 44.88681 | 13.62981 | 2532 ft | 188 kts | 90° |
| 2026-05-04 09:34 | 44.88724 | 13.64756 | 2507 ft | 177 kts | 90° |
| 2026-05-04 09:34 | 44.88766 | 13.66469 | 2502 ft | 173 kts | 90° |
| 2026-05-04 09:35 | 44.88808 | 13.68161 | 2501 ft | 172 kts | 90° |
| 2026-05-04 09:35 | 44.88849 | 13.69841 | 2483 ft | 172 kts | 90° |
| 2026-05-04 09:35 | 44.88891 | 13.71522 | 2482 ft | 171 kts | 90° |
| 2026-05-04 09:35 | 44.88936 | 13.73206 | 2477 ft | 172 kts | 89° |
| 2026-05-04 09:37 | 44.89172 | 13.83886 | 1159 ft | 139 kts | 90° |
| 2026-05-04 09:37 | 44.89206 | 13.85243 | 956 ft | 138 kts | 90° |
| 2026-05-04 09:38 | 44.89229 | 13.86588 | 766 ft | 137 kts | 89° |
| 2026-05-04 09:38 | 44.89264 | 13.87928 | 576 ft | 137 kts | 90° |
| 2026-05-04 09:38 | 44.89285 | 13.89271 | 412 ft | 137 kts | 90° |
| 2026-05-04 09:38 | 44.89320 | 13.90620 | 242 ft | 138 kts | 89° |
| 2026-05-04 09:39 | 44.89341 | 13.91783 | 226 ft | 94 kts | 87° |
| 2026-05-04 09:39 | 44.89359 | 13.92464 | 221 ft | 45 kts | 88° |
| 2026-05-04 09:39 | 44.89367 | 13.92789 | 222 ft | 18 kts | 88° |
| 2026-05-04 09:39 | 44.89404 | 13.92867 | 223 ft | 10 kts | 14° |
| 2026-05-04 09:40 | 44.89485 | 13.92867 | 222 ft | 14 kts | 359° |
| 2026-05-04 09:40 | 44.89559 | 13.92861 | 223 ft | 9 kts | 347° |
| 2026-05-04 09:40 | 44.89587 | 13.92793 | 224 ft | 10 kts | 268° |
| 2026-05-04 09:40 | 44.89584 | 13.92676 | 224 ft | 13 kts | 268° |
| 2026-05-04 09:41 | 44.89583 | 13.92569 | 224 ft | 4 kts | 268° |
| 2026-05-04 09:42 | 44.89587 | 13.92460 | 226 ft | 0 kts | 316° |
| 2026-05-04 09:43 | 44.89591 | 13.92462 | 228 ft | 1 kts | 357° |
| 2026-05-04 09:43 | 44.89617 | 13.92459 | 226 ft | 4 kts | 346° |
| 2026-05-04 09:43 | 44.89636 | 13.92435 | 226 ft | 2 kts | 309° |
| 2026-05-04 09:43 | 44.89645 | 13.92414 | 226 ft | 3 kts | 296° |
| 2026-05-04 09:44 | 44.89655 | 13.92386 | 226 ft | 3 kts | 296° |
| 2026-05-04 09:44 | 44.89665 | 13.92371 | 226 ft | 1 kts | 321° |
| 2026-05-04 09:44 | 44.89674 | 13.92372 | 227 ft | 1 kts | 12° |
| 2026-05-04 09:46 | 44.89693 | 13.92401 | 226 ft | 0 kts | 39° |